Terminal Aerodrome Forecast
Issued by NWS

Home | Current Version | Previous Version | Text Only | Print | Product List | Glossary On
Versions: 1 2 3 4 5 6 7 8 9 10 11 12 13 14
000
FTUS42 KJAX 161200 AAA
TAFCRG
TAF AMD
KCRG 161239Z 1613/1712 25005KT P6SM SCT050
     FM161700 28006KT P6SM VCSH SCT030 BKN100
     FM161900 27007KT P6SM -SHRA VCTS SCT025CB BKN040
      TEMPO 1620/1624 2SM TSRA BKN025CB
     FM170200 25004KT P6SM VCSH SCT040 BKN100
     FM170600 29005KT P6SM SCT100 BKN200=

USA.gov is the U.S. government's official web portal to all federal, state and local government web resources and services.